Time;durP1;ratioP1;P1;durP2;ratioP2;P2;SDS_P1;SDS_P2;PMS_P1;PMS_P2;Temp;Humidity;BMP_temperature;BMP_pressure;BME280_temperature;BME280_humidity;BME280_pressure;Samples;Min_cycle;Max_cycle;Signal;HPM_P1;HPM_P2
2021/12/07 00:01:59;;;;;;;6.13;3.08;;;4.70;96.70;;;;;;4869694;29;20059;-71
2021/12/07 00:04:27;;;;;;;3.88;2.58;;;4.60;96.70;;;;;;4870210;29;20075;-71
2021/12/07 00:06:55;;;;;;;6.13;3.20;;;4.60;96.70;;;;;;4854989;29;20071;-72
2021/12/07 00:09:23;;;;;;;5.55;3.35;;;4.60;96.70;;;;;;4870802;29;20048;-71
2021/12/07 00:11:52;;;;;;;3.78;2.60;;;4.60;96.70;;;;;;4868567;29;20124;-71
2021/12/07 00:14:32;;;;;;;4.80;2.60;;;4.60;96.70;;;;;;4868989;29;20496;-71
2021/12/07 00:17:03;;;;;;;4.93;3.25;;;4.60;96.70;;;;;;4869056;29;20045;-71
2021/12/07 00:19:32;;;;;;;4.47;2.63;;;4.30;96.70;;;;;;4852074;29;20048;-71
2021/12/07 00:22:01;;;;;;;5.00;3.00;;;4.30;96.70;;;;;;4853353;29;20125;-72
2021/12/07 00:24:29;;;;;;;5.43;2.72;;;4.40;96.70;;;;;;4872061;29;20068;-72
2021/12/07 00:26:57;;;;;;;5.18;3.17;;;4.30;96.70;;;;;;4851920;29;20546;-71
2021/12/07 00:29:27;;;;;;;5.82;2.95;;;4.30;96.70;;;;;;4857185;29;20049;-71
2021/12/07 00:32:14;;;;;;;6.00;3.30;;;4.30;96.70;;;;;;4868135;29;20478;-71
2021/12/07 00:37:34;;;;;;;11.20;6.68;;;4.10;96.70;;;;;;4852428;29;20077;-71
2021/12/07 00:40:06;;;;;;;12.13;7.50;;;4.00;96.70;;;;;;4852727;29;20148;-71
2021/12/07 00:42:36;;;;;;;11.70;6.68;;;4.10;96.70;;;;;;4869633;29;20582;-72
2021/12/07 00:45:06;;;;;;;7.72;5.28;;;4.10;96.70;;;;;;4853711;29;20057;-71
2021/12/07 00:47:34;;;;;;;8.18;4.90;;;4.20;96.70;;;;;;4870210;29;20052;-71
2021/12/07 00:50:07;;;;;;;11.98;6.50;;;4.30;96.70;;;;;;4852875;29;20057;-72
2021/12/07 00:52:37;;;;;;;9.43;5.47;;;4.30;96.70;;;;;;4867132;29;20067;-71
2021/12/07 00:55:08;;;;;;;10.90;5.68;;;4.20;96.70;;;;;;4866194;29;20511;-71
2021/12/07 00:57:36;;;;;;;10.35;5.60;;;4.10;96.70;;;;;;4866092;29;20049;-71
2021/12/07 01:00:06;;;;;;;6.18;3.60;;;4.10;96.70;;;;;;4852914;29;20037;-71
2021/12/07 01:02:34;;;;;;;6.25;3.08;;;4.00;96.70;;;;;;4850864;29;20053;-71
2021/12/07 01:05:13;;;;;;;5.60;3.33;;;3.90;96.70;;;;;;4853305;29;20497;-71
2021/12/07 01:26:53;;;;;;;3.88;2.00;;;4.00;96.70;;;;;;4866804;29;20041;-71
2021/12/07 01:29:25;;;;;;;3.70;2.10;;;4.00;96.70;;;;;;4868326;29;20045;-71
2021/12/07 01:37:37;;;;;;;3.83;2.75;;;3.90;96.70;;;;;;4851690;29;20121;-71
2021/12/07 01:43:26;;;;;;;6.10;3.40;;;3.80;96.70;;;;;;4853453;29;20526;-72
2021/12/07 01:51:26;;;;;;;6.32;3.65;;;3.70;96.70;;;;;;4851133;29;20064;-72
2021/12/07 01:59:37;;;;;;;6.93;3.95;;;3.80;96.70;;;;;;4868031;29;20797;-71
2021/12/07 02:02:10;;;;;;;5.75;3.45;;;3.80;96.70;;;;;;4850610;29;20053;-72
2021/12/07 02:04:38;;;;;;;5.15;3.30;;;3.70;96.70;;;;;;4849441;29;20053;-72
2021/12/07 02:07:09;;;;;;;4.40;3.17;;;3.90;96.70;;;;;;4865744;29;20511;-71
2021/12/07 02:09:45;;;;;;;5.95;3.38;;;3.90;96.70;;;;;;4852321;29;20045;-71
2021/12/07 02:12:15;;;;;;;5.45;3.47;;;3.80;96.70;;;;;;4867825;29;20052;-71
2021/12/07 02:14:44;;;;;;;4.75;3.30;;;3.70;96.70;;;;;;4859818;29;20435;-72
2021/12/07 02:17:16;;;;;;;4.78;3.35;;;3.60;96.70;;;;;;4867480;29;20045;-71
2021/12/07 02:19:48;;;;;;;5.72;3.17;;;3.50;96.70;;;;;;4836226;29;20077;-71
2021/12/07 02:22:18;;;;;;;6.00;3.33;;;3.70;96.70;;;;;;4853435;29;20041;-71
2021/12/07 02:24:51;;;;;;;4.95;2.92;;;3.60;96.70;;;;;;4871882;29;20063;-71
2021/12/07 02:27:19;;;;;;;6.70;3.22;;;3.50;96.70;;;;;;4875468;29;20531;-71
2021/12/07 02:29:47;;;;;;;5.45;3.30;;;3.40;96.70;;;;;;4874493;29;20041;-71
2021/12/07 02:32:16;;;;;;;6.63;3.33;;;3.40;96.70;;;;;;4854889;29;20044;-71
2021/12/07 02:35:00;;;;;;;5.43;3.78;;;3.40;96.70;;;;;;4857930;29;20141;-72
2021/12/07 02:37:35;;;;;;;5.15;3.10;;;3.40;96.70;;;;;;4860333;29;20128;-71
2021/12/07 02:40:07;;;;;;;6.72;3.35;;;3.40;96.70;;;;;;4871737;29;20418;-72
2021/12/07 02:42:35;;;;;;;5.65;3.53;;;3.50;96.70;;;;;;4853456;29;20089;-71
2021/12/07 02:45:06;;;;;;;5.50;3.55;;;3.60;96.70;;;;;;4869986;29;20049;-71
2021/12/07 02:47:35;;;;;;;6.85;3.45;;;3.50;96.70;;;;;;4853978;29;20060;-71
2021/12/07 02:50:07;;;;;;;4.82;3.13;;;3.50;96.70;;;;;;4855530;29;20049;-71
2021/12/07 02:52:37;;;;;;;4.50;2.92;;;3.50;96.70;;;;;;4875504;29;20901;-71
2021/12/07 02:55:08;;;;;;;5.07;2.92;;;3.60;96.70;;;;;;4854871;29;20053;-71
2021/12/07 02:57:37;;;;;;;3.55;2.92;;;3.60;96.70;;;;;;4853407;29;20235;-71
2021/12/07 03:00:13;;;;;;;5.25;3.05;;;3.50;96.70;;;;;;4859739;29;20052;-71
2021/12/07 03:02:47;;;;;;;4.20;2.97;;;3.40;96.70;;;;;;4856779;29;20056;-71
2021/12/07 03:27:22;;;;;;;3.75;2.40;;;3.00;96.70;;;;;;4870245;29;20386;-71
2021/12/07 03:29:51;;;;;;;3.72;2.33;;;3.00;96.70;;;;;;4855165;29;20080;-71
2021/12/07 03:32:19;;;;;;;5.18;2.38;;;2.90;96.70;;;;;;4858474;29;20045;-71
2021/12/07 03:34:47;;;;;;;3.97;2.42;;;2.80;96.70;;;;;;4869583;29;20034;-71
2021/12/07 03:37:15;;;;;;;3.25;2.13;;;2.60;96.70;;;;;;4853018;29;20062;-71
2021/12/07 03:39:45;;;;;;;5.32;2.67;;;2.60;96.70;;;;;;4871982;29;20073;-71
2021/12/07 03:42:14;;;;;;;3.30;1.90;;;2.60;96.70;;;;;;4856008;29;20057;-71
2021/12/07 03:44:42;;;;;;;3.42;2.35;;;2.50;96.70;;;;;;4875531;29;20041;-71
2021/12/07 03:47:11;;;;;;;3.83;2.35;;;2.70;96.70;;;;;;4871339;29;20047;-71
2021/12/07 03:49:39;;;;;;;3.58;2.25;;;2.90;96.70;;;;;;4857860;29;20068;-71
2021/12/07 03:52:08;;;;;;;3.70;2.15;;;2.90;96.70;;;;;;4851439;29;20427;-71
2021/12/07 03:54:37;;;;;;;3.88;2.40;;;2.90;96.70;;;;;;4855172;29;20041;-71
2021/12/07 03:57:07;;;;;;;4.10;2.17;;;2.80;96.70;;;;;;4869795;29;20128;-71
2021/12/07 03:59:35;;;;;;;2.35;1.70;;;2.80;96.70;;;;;;4869263;29;20097;-71
2021/12/07 04:02:04;;;;;;;3.58;1.70;;;2.60;96.70;;;;;;4855251;29;20133;-72
2021/12/07 04:04:33;;;;;;;3.95;1.90;;;2.80;96.70;;;;;;4858168;29;20044;-71
2021/12/07 04:07:00;;;;;;;3.13;1.63;;;2.70;96.70;;;;;;4867794;29;20049;-72
2021/12/07 04:09:29;;;;;;;3.60;2.13;;;2.70;96.70;;;;;;4853468;29;20097;-71
2021/12/07 04:11:57;;;;;;;3.78;2.40;;;2.60;96.70;;;;;;4835778;29;20049;-71
2021/12/07 04:14:26;;;;;;;5.03;2.72;;;2.50;96.70;;;;;;4852991;29;20068;-71
2021/12/07 04:16:54;;;;;;;4.15;2.17;;;2.60;96.70;;;;;;4856366;29;20071;-71
2021/12/07 04:19:23;;;;;;;5.38;2.80;;;2.50;96.70;;;;;;4855948;29;20045;-73
2021/12/07 04:21:51;;;;;;;5.53;2.75;;;2.50;96.70;;;;;;4853245;29;20704;-74
2021/12/07 04:24:19;;;;;;;5.05;2.78;;;2.50;96.70;;;;;;4853910;29;20537;-72
2021/12/07 04:26:46;;;;;;;3.28;2.65;;;2.50;96.70;;;;;;4871235;29;20047;-72
2021/12/07 04:29:14;;;;;;;4.82;2.97;;;2.70;96.70;;;;;;4872463;29;20135;-72
2021/12/07 04:31:43;;;;;;;5.55;3.08;;;2.80;96.70;;;;;;4853208;29;20051;-72
2021/12/07 04:34:11;;;;;;;3.42;2.38;;;3.00;96.70;;;;;;4870531;29;20041;-71
2021/12/07 04:36:38;;;;;;;3.90;2.78;;;3.00;96.70;;;;;;4871840;29;20052;-72
2021/12/07 04:39:08;;;;;;;4.40;2.88;;;3.00;96.70;;;;;;4868769;29;20084;-72
2021/12/07 04:41:36;;;;;;;4.07;2.45;;;3.10;96.70;;;;;;4854762;29;20045;-71
2021/12/07 04:44:04;;;;;;;5.40;2.53;;;3.00;96.70;;;;;;4869459;29;20069;-72
2021/12/07 04:47:12;;;;;;;5.38;1.98;;;3.10;96.70;;;;;;4851780;29;20124;-71
2021/12/07 04:57:38;;;;;;;3.45;1.90;;;2.80;96.70;;;;;;4853707;29;20411;-71
2021/12/07 05:00:09;;;;;;;4.70;2.28;;;2.80;96.70;;;;;;4849782;29;20659;-71
2021/12/07 05:02:39;;;;;;;7.90;2.67;;;2.80;96.70;;;;;;4839378;29;20406;-72
2021/12/07 05:05:11;;;;;;;5.65;3.28;;;2.90;96.70;;;;;;4837795;29;20049;-72
2021/12/07 05:07:43;;;;;;;5.85;3.28;;;2.80;96.70;;;;;;4854687;29;20403;-71
2021/12/07 05:11:13;;;;;;;3.80;2.25;;;2.50;96.70;;;;;;4869543;29;20283;-72
2021/12/07 05:24:06;;;;;;;2.75;2.03;;;2.70;96.70;;;;;;4866240;29;20477;-71
2021/12/07 05:37:50;;;;;;;4.75;2.20;;;2.70;96.70;;;;;;4865602;29;20053;-71
2021/12/07 05:40:21;;;;;;;5.60;2.60;;;2.80;96.70;;;;;;4867804;29;20053;-72
2021/12/07 05:42:49;;;;;;;3.40;1.98;;;2.70;96.70;;;;;;4850466;29;20048;-71
2021/12/07 05:45:20;;;;;;;4.05;2.13;;;2.70;96.70;;;;;;4866780;29;20152;-72
2021/12/07 05:47:53;;;;;;;3.92;2.05;;;2.80;96.70;;;;;;4853008;29;20511;-71
2021/12/07 05:50:24;;;;;;;3.28;2.13;;;2.70;96.70;;;;;;4870181;29;20086;-72
2021/12/07 05:52:54;;;;;;;3.72;2.00;;;2.70;96.70;;;;;;4851655;29;20598;-71
2021/12/07 05:55:21;;;;;;;2.92;2.10;;;2.60;96.70;;;;;;4848973;29;20048;-71
2021/12/07 05:57:49;;;;;;;4.28;2.58;;;2.50;96.70;;;;;;4866912;29;20045;-72
2021/12/07 06:00:26;;;;;;;2.35;2.00;;;2.50;96.70;;;;;;4866828;29;20080;-71
2021/12/07 06:02:53;;;;;;;;;;;2.60;96.70;;;;;;4851067;29;20087;-71
2021/12/07 06:05:22;;;;;;;5.05;2.78;;;2.50;96.70;;;;;;4868633;29;19928;-72
2021/12/07 06:07:50;;;;;;;4.63;2.45;;;2.60;96.70;;;;;;4865438;29;20136;-73
2021/12/07 06:10:19;;;;;;;3.35;2.33;;;2.40;96.70;;;;;;4867452;29;20045;-73
2021/12/07 06:12:47;;;;;;;4.53;2.60;;;2.50;96.70;;;;;;4848432;29;20096;-72
2021/12/07 06:15:18;;;;;;;7.07;3.63;;;2.50;96.70;;;;;;4868576;29;20125;-72
2021/12/07 06:17:46;;;;;;;4.72;2.90;;;2.60;96.70;;;;;;4867105;29;20152;-72
2021/12/07 06:20:14;;;;;;;5.95;3.40;;;2.60;96.70;;;;;;4871662;29;20467;-72
2021/12/07 06:23:02;;;;;;;4.05;2.75;;;2.60;96.70;;;;;;4858956;29;20049;-72
2021/12/07 06:25:31;;;;;;;3.40;2.40;;;2.50;96.70;;;;;;4866629;29;20510;-72
2021/12/07 06:27:58;;;;;;;5.68;3.15;;;2.50;96.70;;;;;;4867561;29;20045;-72
2021/12/07 06:30:26;;;;;;;6.65;2.88;;;2.60;96.70;;;;;;4851205;29;20171;-72
2021/12/07 06:32:54;;;;;;;6.60;3.17;;;2.70;96.70;;;;;;4867516;29;20164;-72
2021/12/07 06:35:21;;;;;;;6.20;2.85;;;2.60;96.70;;;;;;4868222;29;20049;-73
2021/12/07 06:37:49;;;;;;;4.10;2.97;;;2.60;96.70;;;;;;4864358;29;20041;-72
2021/12/07 06:40:21;;;;;;;4.05;2.65;;;2.60;96.70;;;;;;4848692;29;20061;-72
2021/12/07 06:42:50;;;;;;;4.03;2.60;;;2.50;96.70;;;;;;4869084;29;20048;-72
2021/12/07 06:45:18;;;;;;;3.78;2.60;;;2.60;96.70;;;;;;4864729;29;20053;-72
2021/12/07 06:47:46;;;;;;;6.40;2.60;;;2.60;96.70;;;;;;4856064;29;20068;-72
2021/12/07 06:50:13;;;;;;;5.80;2.85;;;2.40;96.70;;;;;;4872766;29;20097;-72
2021/12/07 06:52:41;;;;;;;6.38;2.92;;;2.40;96.70;;;;;;4851692;29;20049;-73
2021/12/07 06:55:09;;;;;;;6.90;3.17;;;2.60;96.70;;;;;;4866845;29;21541;-73
2021/12/07 06:57:37;;;;;;;6.82;3.08;;;2.60;96.70;;;;;;4850911;29;20464;-73
2021/12/07 07:00:09;;;;;;;7.72;3.53;;;2.40;96.70;;;;;;4866403;29;20044;-72
2021/12/07 07:02:37;;;;;;;4.43;2.88;;;2.40;96.70;;;;;;4867844;29;20045;-72
2021/12/07 07:05:06;;;;;;;5.25;3.78;;;2.40;96.70;;;;;;4848050;29;20056;-72
2021/12/07 07:07:34;;;;;;;8.63;3.60;;;2.40;96.70;;;;;;4826638;29;20061;-73
2021/12/07 07:10:03;;;;;;;9.15;4.20;;;2.40;96.70;;;;;;4814814;29;20048;-72
2021/12/07 07:12:30;;;;;;;7.38;4.70;;;2.50;96.70;;;;;;4873901;29;20512;-72
2021/12/07 07:14:58;;;;;;;7.00;3.50;;;2.60;96.70;;;;;;4872941;29;20053;-72
2021/12/07 07:17:27;;;;;;;6.55;3.63;;;2.70;96.70;;;;;;4874222;29;20234;-72
2021/12/07 07:19:55;;;;;;;7.32;3.55;;;2.70;96.70;;;;;;4871824;29;20050;-72
2021/12/07 07:22:22;;;;;;;6.15;3.00;;;2.70;96.70;;;;;;4872899;29;20143;-73
2021/12/07 07:24:50;;;;;;;5.78;3.10;;;2.80;96.70;;;;;;4855688;29;20136;-72
2021/12/07 07:27:23;;;;;;;4.10;2.78;;;2.90;96.70;;;;;;4857905;29;20590;-72
2021/12/07 07:29:51;;;;;;;5.68;3.30;;;3.00;96.70;;;;;;4872165;29;20049;-72
2021/12/07 07:32:19;;;;;;;6.78;3.30;;;3.00;96.70;;;;;;4873888;29;20052;-72
2021/12/07 07:34:48;;;;;;;4.90;3.03;;;3.10;96.70;;;;;;4871506;29;20049;-72
2021/12/07 07:37:16;;;;;;;5.00;2.97;;;3.10;96.70;;;;;;4873561;29;20049;-72
2021/12/07 07:39:44;;;;;;;6.43;3.00;;;3.10;96.70;;;;;;4871445;29;20219;-73
2021/12/07 07:42:11;;;;;;;8.55;2.80;;;3.10;96.70;;;;;;4857031;29;20131;-72
2021/12/07 07:45:00;;;;;;;6.95;2.88;;;3.10;96.70;;;;;;4855934;29;20082;-73
2021/12/07 07:47:27;;;;;;;6.15;3.30;;;3.20;96.70;;;;;;4855741;29;20049;-72
2021/12/07 07:49:56;;;;;;;5.93;3.03;;;3.20;96.70;;;;;;4855871;29;20052;-73
2021/12/07 07:52:24;;;;;;;9.52;4.22;;;3.20;96.70;;;;;;4855566;29;20049;-73
2021/12/07 07:54:52;;;;;;;10.85;4.82;;;3.20;96.70;;;;;;4870267;29;20040;-72
2021/12/07 07:57:20;;;;;;;12.57;4.82;;;3.30;96.70;;;;;;4855564;29;20048;-73
2021/12/07 07:59:48;;;;;;;10.27;4.32;;;3.40;96.70;;;;;;4870408;29;20428;-73
2021/12/07 08:02:17;;;;;;;14.80;4.35;;;3.30;96.70;;;;;;4855116;29;20044;-73
2021/12/07 08:04:47;;;;;;;12.13;5.13;;;3.20;96.70;;;;;;4872321;29;20583;-73
2021/12/07 08:07:16;;;;;;;13.27;5.00;;;3.20;96.70;;;;;;4854911;29;20052;-72
2021/12/07 08:09:44;;;;;;;11.13;4.57;;;3.20;96.70;;;;;;4852462;29;20049;-72
2021/12/07 08:12:12;;;;;;;13.65;5.97;;;3.30;96.70;;;;;;4853201;29;20041;-73
2021/12/07 08:14:40;;;;;;;14.43;5.35;;;3.40;96.70;;;;;;4856621;29;20045;-72
2021/12/07 08:17:08;;;;;;;15.43;6.07;;;3.50;96.70;;;;;;4871271;29;20041;-72
2021/12/07 08:19:37;;;;;;;11.77;5.07;;;3.50;96.70;;;;;;4872217;29;20052;-73
2021/12/07 08:22:05;;;;;;;8.27;4.60;;;3.60;96.70;;;;;;4848081;29;20081;-73
2021/12/07 08:24:37;;;;;;;8.98;4.55;;;3.80;96.70;;;;;;4852241;29;20503;-74
2021/12/07 08:27:05;;;;;;;13.35;6.05;;;3.80;96.70;;;;;;4867121;29;20212;-75
2021/12/07 08:29:53;;;;;;;7.63;3.80;;;3.80;96.70;;;;;;4869487;29;20496;-75
2021/12/07 08:32:21;;;;;;;9.43;3.88;;;3.80;96.70;;;;;;4871205;29;20120;-75
2021/12/07 08:34:49;;;;;;;8.48;4.93;;;3.90;96.70;;;;;;4852709;29;20105;-73
2021/12/07 08:37:17;;;;;;;9.82;4.25;;;3.90;96.70;;;;;;4853468;29;20128;-73
2021/12/07 08:39:46;;;;;;;10.60;4.90;;;4.10;96.70;;;;;;4838624;29;20069;-74
2021/12/07 08:42:15;;;;;;;9.00;4.63;;;4.20;96.70;;;;;;4867769;29;20041;-74
2021/12/07 08:44:43;;;;;;;9.93;4.55;;;4.20;96.70;;;;;;4857073;29;20148;-73
2021/12/07 08:47:11;;;;;;;8.32;3.63;;;4.30;96.70;;;;;;4870923;29;20599;-73
2021/12/07 08:49:45;;;;;;;6.97;3.60;;;4.20;96.70;;;;;;4834244;29;20160;-73
2021/12/07 08:52:18;;;;;;;7.10;3.80;;;4.30;96.70;;;;;;4868735;29;20400;-74
2021/12/07 09:00:05;;;;;;;5.95;3.55;;;4.50;96.70;;;;;;4867442;29;20045;-74
2021/12/07 09:02:33;;;;;;;5.88;3.45;;;4.60;96.70;;;;;;4869692;29;20140;-75
2021/12/07 09:05:01;;;;;;;5.25;3.40;;;4.60;96.70;;;;;;4855922;29;20707;-73
2021/12/07 09:07:29;;;;;;;6.30;3.30;;;4.90;96.70;;;;;;4869073;29;20055;-74
2021/12/07 09:09:58;;;;;;;6.45;3.45;;;5.00;96.70;;;;;;4868090;29;20100;-73
2021/12/07 09:12:27;;;;;;;6.75;3.70;;;5.10;96.70;;;;;;4869032;29;20112;-74
2021/12/07 09:14:55;;;;;;;6.28;3.65;;;5.20;96.70;;;;;;4851076;29;20053;-74
2021/12/07 09:17:23;;;;;;;5.70;3.28;;;5.20;96.70;;;;;;4869470;29;20048;-74
2021/12/07 09:19:51;;;;;;;6.70;3.03;;;5.20;96.70;;;;;;4867624;29;20053;-73
2021/12/07 09:22:19;;;;;;;3.95;2.63;;;5.30;96.70;;;;;;4871525;29;20329;-72
2021/12/07 09:24:55;;;;;;;4.63;2.83;;;5.30;96.70;;;;;;4852021;29;20055;-73
2021/12/07 09:27:24;;;;;;;4.85;2.63;;;5.30;96.70;;;;;;4871631;29;20041;-73
2021/12/07 09:29:52;;;;;;;4.70;2.85;;;5.40;96.70;;;;;;4866928;29;20116;-73
2021/12/07 09:32:21;;;;;;;6.18;2.90;;;5.70;96.70;;;;;;4864424;29;20116;-73
2021/12/07 09:34:49;;;;;;;4.82;2.78;;;5.70;96.70;;;;;;4866401;29;20069;-73
2021/12/07 09:37:17;;;;;;;4.35;2.70;;;5.90;96.70;;;;;;4869907;29;20052;-73
2021/12/07 09:39:45;;;;;;;4.47;3.00;;;6.00;96.70;;;;;;4869656;29;20588;-72
2021/12/07 09:42:13;;;;;;;4.50;2.97;;;6.20;96.70;;;;;;4868851;29;20053;-73
2021/12/07 09:44:42;;;;;;;8.85;4.22;;;6.30;96.70;;;;;;4864232;29;20080;-73
2021/12/07 09:47:10;;;;;;;7.00;3.90;;;6.40;96.70;;;;;;4849920;29;20044;-72
2021/12/07 09:49:38;;;;;;;5.43;3.28;;;6.50;96.70;;;;;;4869927;29;20060;-72
2021/12/07 09:52:06;;;;;;;7.10;4.03;;;6.50;96.70;;;;;;4870803;29;20053;-73
2021/12/07 09:54:34;;;;;;;6.97;3.85;;;6.70;96.70;;;;;;4868549;29;20045;-73
2021/12/07 09:57:04;;;;;;;6.85;3.45;;;6.90;96.70;;;;;;4874656;29;20041;-74
2021/12/07 09:59:32;;;;;;;6.32;3.50;;;6.90;96.70;;;;;;4872347;29;20651;-73
2021/12/07 10:02:06;;;;;;;7.60;3.75;;;6.90;96.70;;;;;;4867291;29;20513;-73
2021/12/07 10:04:37;;;;;;;5.45;3.60;;;7.00;96.70;;;;;;4866738;29;20045;-73
2021/12/07 10:07:11;;;;;;;6.13;3.50;;;7.10;96.70;;;;;;4864009;29;20045;-73
2021/12/07 10:09:43;;;;;;;4.75;2.80;;;7.20;96.70;;;;;;4865747;29;20047;-73
2021/12/07 10:12:18;;;;;;;5.05;2.72;;;7.30;96.70;;;;;;4851077;29;20047;-73
2021/12/07 10:14:47;;;;;;;3.90;2.40;;;7.20;96.70;;;;;;4851211;29;20069;-72
2021/12/07 10:17:21;;;;;;;4.30;2.70;;;7.20;96.70;;;;;;4867717;29;20469;-74
2021/12/07 10:19:50;;;;;;;3.17;2.35;;;7.40;96.70;;;;;;4854072;29;20071;-73
2021/12/07 10:22:21;;;;;;;3.67;2.33;;;7.40;96.70;;;;;;4853882;29;20418;-73
2021/12/07 10:24:54;;;;;;;4.68;2.70;;;7.50;96.70;;;;;;4867561;29;20053;-73
2021/12/07 10:27:33;;;;;;;4.70;3.50;;;7.60;96.70;;;;;;4854228;29;20072;-74
2021/12/07 10:30:02;;;;;;;7.88;3.97;;;7.50;96.70;;;;;;4854206;29;20053;-72
2021/12/07 10:32:32;;;;;;;7.30;4.07;;;7.60;96.70;;;;;;4834197;29;20461;-74
2021/12/07 10:35:00;;;;;;;6.82;3.30;;;7.60;96.70;;;;;;4850477;29;20144;-74
2021/12/07 10:37:33;;;;;;;6.30;4.22;;;7.70;96.70;;;;;;4868424;29;20104;-74
2021/12/07 10:40:01;;;;;;;7.95;4.22;;;7.80;96.70;;;;;;4853590;29;20511;-73
2021/12/07 10:42:30;;;;;;;7.72;5.13;;;7.80;96.70;;;;;;4851331;29;20132;-73
2021/12/07 10:45:03;;;;;;;8.90;5.32;;;7.80;96.70;;;;;;4858963;29;20060;-73
2021/12/07 10:47:33;;;;;;;8.98;4.95;;;7.90;96.70;;;;;;4872810;29;20049;-73
2021/12/07 10:50:03;;;;;;;7.80;4.45;;;8.00;96.70;;;;;;4856332;29;20049;-73
2021/12/07 10:52:34;;;;;;;8.63;5.28;;;8.10;96.70;;;;;;4872687;29;20140;-73
2021/12/07 10:55:08;;;;;;;11.52;6.68;;;8.20;96.70;;;;;;4873387;29;20053;-73
2021/12/07 10:57:41;;;;;;;8.45;4.88;;;8.30;96.70;;;;;;4871626;29;20077;-73
2021/12/07 11:00:17;;;;;;;12.60;7.30;;;8.20;96.70;;;;;;4852578;29;20079;-73
2021/12/07 11:02:49;;;;;;;14.68;9.27;;;8.10;96.70;;;;;;4870354;29;20953;-74
2021/12/07 11:05:21;;;;;;;9.40;6.20;;;8.30;96.70;;;;;;4850801;29;20049;-73
2021/12/07 11:07:51;;;;;;;9.18;4.80;;;8.30;96.70;;;;;;4870691;29;20406;-72
2021/12/07 11:10:29;;;;;;;9.07;5.05;;;8.40;96.70;;;;;;4872081;29;20057;-73
2021/12/07 11:15:47;;;;;;;7.18;4.90;;;8.60;96.70;;;;;;4869674;29;20129;-74
2021/12/07 11:18:20;;;;;;;7.93;4.80;;;8.80;96.70;;;;;;4870648;29;20064;-72
2021/12/07 11:20:48;;;;;;;9.23;4.55;;;8.90;96.70;;;;;;4871873;29;20051;-72
2021/12/07 11:23:19;;;;;;;8.05;3.78;;;9.10;96.70;;;;;;4870381;29;20045;-72
2021/12/07 11:31:21;;;;;;;7.90;4.47;;;9.20;96.70;;;;;;4869651;29;20072;-72
2021/12/07 11:33:53;;;;;;;7.30;4.60;;;9.40;96.70;;;;;;4869836;29;20048;-71
2021/12/07 11:36:25;;;;;;;7.22;5.05;;;9.50;96.70;;;;;;4870276;29;20037;-72
2021/12/07 11:38:55;;;;;;;6.22;4.55;;;9.50;96.70;;;;;;4867774;29;20240;-72
2021/12/07 11:41:27;;;;;;;5.65;4.30;;;9.60;96.70;;;;;;4864843;29;20049;-72
2021/12/07 11:43:58;;;;;;;5.30;4.28;;;9.70;96.70;;;;;;4870527;29;20132;-72
2021/12/07 11:46:29;;;;;;;5.78;3.70;;;9.80;96.70;;;;;;4873913;29;20564;-72
2021/12/07 11:49:07;;;;;;;6.40;4.25;;;9.90;96.70;;;;;;4869658;29;20095;-73
2021/12/07 11:51:36;;;;;;;6.90;3.78;;;9.90;96.70;;;;;;4868363;29;20045;-74
2021/12/07 11:54:04;;;;;;;6.93;3.83;;;10.00;96.70;;;;;;4852662;29;20072;-73
2021/12/07 11:56:33;;;;;;;5.90;3.70;;;10.10;96.70;;;;;;4870280;29;20120;-74
2021/12/07 11:59:01;;;;;;;6.47;4.40;;;10.20;96.70;;;;;;4850694;29;20112;-73
2021/12/07 12:01:44;;;;;;;6.95;4.07;;;10.30;96.70;;;;;;4869187;29;20049;-74
2021/12/07 12:04:15;;;;;;;4.90;3.85;;;10.40;96.70;;;;;;4868572;29;20511;-74
2021/12/07 12:06:46;;;;;;;7.88;4.80;;;10.50;96.70;;;;;;4856056;29;20128;-74
2021/12/07 12:09:15;;;;;;;5.05;3.80;;;10.50;96.70;;;;;;4874351;29;20132;-74
2021/12/07 12:11:54;;;;;;;6.47;4.18;;;10.60;96.70;;;;;;4863888;29;20481;-74
2021/12/07 12:14:38;;;;;;;6.38;5.15;;;10.70;96.70;;;;;;4868058;29;20053;-73
2021/12/07 12:17:10;;;;;;;7.55;4.32;;;10.70;96.70;;;;;;4868930;29;20438;-74
2021/12/07 12:20:00;;;;;;;4.35;3.40;;;10.80;96.70;;;;;;4874244;29;20049;-73
2021/12/07 12:22:34;;;;;;;4.82;3.60;;;10.90;96.70;;;;;;4865925;29;20087;-73
2021/12/07 12:25:07;;;;;;;5.07;3.70;;;10.90;96.70;;;;;;4869939;29;20049;-73
2021/12/07 12:27:41;;;;;;;5.88;4.03;;;10.90;96.70;;;;;;4870372;29;20052;-72
2021/12/07 12:30:20;;;;;;;6.35;4.18;;;10.90;96.70;;;;;;4868278;29;20061;-73
2021/12/07 12:32:55;;;;;;;7.93;4.22;;;11.10;96.70;;;;;;4864622;29;20429;-72
2021/12/07 12:35:35;;;;;;;4.95;3.60;;;11.20;96.70;;;;;;4872998;29;20537;-73
2021/12/07 12:38:15;;;;;;;7.25;4.45;;;11.20;96.70;;;;;;4855930;29;20045;-72
2021/12/07 12:40:52;;;;;;;5.47;4.00;;;11.40;96.70;;;;;;4869023;29;20053;-72
2021/12/07 12:43:33;;;;;;;5.97;4.43;;;11.40;96.70;;;;;;4870079;29;20093;-72
2021/12/07 12:46:04;;;;;;;8.52;4.03;;;11.40;96.70;;;;;;4869929;29;20072;-72
2021/12/07 12:48:32;;;;;;;5.28;3.70;;;11.40;96.70;;;;;;4875424;29;20067;-72
2021/12/07 12:51:05;;;;;;;4.78;3.53;;;11.50;96.70;;;;;;4852639;29;20108;-72
2021/12/07 12:53:35;;;;;;;7.03;3.83;;;11.50;96.70;;;;;;4868112;29;20224;-72
2021/12/07 12:56:05;;;;;;;6.10;4.82;;;11.60;96.70;;;;;;4866047;29;20492;-72
2021/12/07 12:58:41;;;;;;;7.80;4.00;;;11.60;96.70;;;;;;4854830;29;20045;-72
2021/12/07 13:01:16;;;;;;;5.45;4.18;;;11.70;96.70;;;;;;4850983;29;20415;-72
2021/12/07 13:04:07;;;;;;;5.40;3.50;;;11.80;96.70;;;;;;4869719;29;20417;-72
2021/12/07 13:07:03;;;;;;;5.90;3.85;;;11.80;96.70;;;;;;4865461;29;20477;-72
2021/12/07 13:09:34;;;;;;;5.00;3.50;;;11.90;96.70;;;;;;4866177;29;20068;-72
2021/12/07 13:12:06;;;;;;;4.85;3.47;;;11.90;96.70;;;;;;4868049;29;20576;-72
2021/12/07 13:14:39;;;;;;;4.53;3.28;;;12.00;96.70;;;;;;4869144;29;20080;-72
2021/12/07 13:17:17;;;;;;;6.75;3.60;;;11.90;96.70;;;;;;4869961;29;20427;-72
2021/12/07 13:20:06;;;;;;;5.97;3.50;;;12.00;96.70;;;;;;4868100;29;20325;-72
2021/12/07 13:22:38;;;;;;;7.72;4.20;;;11.90;96.70;;;;;;4867249;29;20041;-72
2021/12/07 13:25:09;;;;;;;5.40;3.60;;;11.80;96.70;;;;;;4854639;29;20148;-72
2021/12/07 13:27:37;;;;;;;5.97;3.70;;;11.60;96.70;;;;;;4870309;29;20052;-72
2021/12/07 13:30:07;;;;;;;7.18;3.90;;;11.50;96.70;;;;;;4874977;29;20051;-72
2021/12/07 13:32:35;;;;;;;6.03;3.40;;;11.40;96.70;;;;;;4872402;29;20095;-72
2021/12/07 13:35:06;;;;;;;5.85;4.20;;;11.30;96.70;;;;;;4852238;29;20072;-72
2021/12/07 13:37:46;;;;;;;5.97;3.70;;;11.20;96.70;;;;;;4852714;29;20594;-72
2021/12/07 13:40:20;;;;;;;10.25;5.15;;;11.20;96.70;;;;;;4867556;29;20878;-72
2021/12/07 13:42:50;;;;;;;8.30;5.03;;;11.10;96.70;;;;;;4870991;29;20057;-72
2021/12/07 13:45:20;;;;;;;9.75;5.07;;;11.00;96.70;;;;;;4871282;29;20055;-72
2021/12/07 13:47:50;;;;;;;6.07;3.88;;;10.90;96.70;;;;;;4868042;29;20040;-72
2021/12/07 13:50:22;;;;;;;4.55;3.33;;;10.90;96.70;;;;;;4850688;29;20045;-72
2021/12/07 13:52:54;;;;;;;4.75;3.25;;;10.80;96.70;;;;;;4866685;29;20567;-72
2021/12/07 13:55:26;;;;;;;6.53;3.45;;;10.80;96.70;;;;;;4854186;29;20044;-72
2021/12/07 13:57:56;;;;;;;5.20;3.55;;;10.70;96.70;;;;;;4867385;29;20057;-72
2021/12/07 14:00:27;;;;;;;6.30;3.05;;;10.70;96.70;;;;;;4852204;29;20141;-72
2021/12/07 14:02:57;;;;;;;6.38;3.42;;;10.70;96.70;;;;;;4866939;29;20587;-72
2021/12/07 14:05:28;;;;;;;6.25;3.42;;;10.60;96.70;;;;;;4866699;29;20098;-72
2021/12/07 14:08:01;;;;;;;5.40;2.78;;;10.60;96.70;;;;;;4849588;29;20416;-71
2021/12/07 14:10:31;;;;;;;5.88;3.40;;;10.50;96.70;;;;;;4865330;29;20078;-72
2021/12/07 14:13:01;;;;;;;3.70;2.33;;;10.50;96.70;;;;;;4870390;29;20194;-72
2021/12/07 14:15:32;;;;;;;3.58;2.60;;;10.50;96.70;;;;;;4870801;29;20067;-71
2021/12/07 14:18:04;;;;;;;4.13;3.15;;;10.40;96.70;;;;;;4853527;29;20509;-71
2021/12/07 14:20:35;;;;;;;5.22;3.38;;;10.40;96.70;;;;;;4870312;29;20059;-72
2021/12/07 14:23:17;;;;;;;5.10;3.45;;;10.30;96.70;;;;;;4869691;29;20041;-72
2021/12/07 14:25:51;;;;;;;5.82;4.20;;;10.30;96.70;;;;;;4854610;29;20057;-71
2021/12/07 14:28:32;;;;;;;4.75;3.22;;;10.20;96.70;;;;;;4874915;29;20040;-71
2021/12/07 14:31:06;;;;;;;4.97;3.15;;;10.20;96.70;;;;;;4873521;29;20415;-72
2021/12/07 14:33:38;;;;;;;6.20;3.35;;;10.20;96.70;;;;;;4872509;29;20050;-72
2021/12/07 14:36:07;;;;;;;4.53;3.10;;;10.10;96.70;;;;;;4856001;29;20082;-72
2021/12/07 14:38:37;;;;;;;4.97;3.70;;;10.10;96.70;;;;;;4871513;29;20540;-72
2021/12/07 14:41:08;;;;;;;6.10;3.17;;;10.00;96.70;;;;;;4872395;29;20049;-71
2021/12/07 14:43:38;;;;;;;6.15;3.70;;;10.00;96.70;;;;;;4870237;29;20159;-71
2021/12/07 14:46:09;;;;;;;7.10;4.50;;;10.00;96.70;;;;;;4871127;29;20164;-72
2021/12/07 14:48:38;;;;;;;7.85;5.40;;;9.90;96.70;;;;;;4873084;29;20132;-72
2021/12/07 14:51:09;;;;;;;9.55;5.90;;;9.90;96.70;;;;;;4874693;29;20088;-72
2021/12/07 14:53:41;;;;;;;9.63;7.13;;;9.80;96.70;;;;;;4855242;29;20055;-74
2021/12/07 14:56:11;;;;;;;12.27;7.65;;;9.80;96.70;;;;;;4855232;29;20055;-72
2021/12/07 14:58:40;;;;;;;12.52;8.55;;;9.70;96.70;;;;;;4854373;29;20060;-72
2021/12/07 15:01:11;;;;;;;13.60;9.15;;;9.70;96.70;;;;;;4871121;29;20048;-72
2021/12/07 15:03:42;;;;;;;16.65;10.00;;;9.70;96.70;;;;;;4871431;29;20500;-72